Time;durP1;ratioP1;P1;durP2;ratioP2;P2;SDS_P1;SDS_P2;PMS_P1;PMS_P2;Temp;Humidity;BMP_temperature;BMP_pressure;BME280_temperature;BME280_humidity;BME280_pressure;Samples;Min_cycle;Max_cycle;Signal;HPM_P1;HPM_P2
2022/07/03 05:36:41;;;;;;;6.00;5.40;;;;;;;;;;7376438;19;20187;-80
2022/07/03 05:41:51;;;;;;;8.17;5.43;;;;;;;;;;7380733;19;20676;-83
2022/07/03 05:44:16;;;;;;;5.10;4.57;;;;;;;;;;7385743;19;20145;-80
2022/07/03 05:46:41;;;;;;;6.17;4.90;;;;;;;;;;7377196;19;20574;-78
2022/07/03 05:49:07;;;;;;;7.33;6.43;;;;;;;;;;7360549;19;20726;-82
2022/07/03 05:51:32;;;;;;;6.23;5.33;;;;;;;;;;7378191;19;20858;-79
2022/07/03 05:53:57;;;;;;;6.67;6.03;;;;;;;;;;7382343;19;20137;-78
2022/07/03 05:56:24;;;;;;;5.63;5.13;;;;;;;;;;7378647;19;20163;-78
2022/07/03 05:58:50;;;;;;;6.95;5.57;;;;;;;;;;7377537;19;20125;-79
2022/07/03 06:01:15;;;;;;;6.22;5.53;;;;;;;;;;7383566;19;20180;-82
2022/07/03 06:03:40;;;;;;;7.35;6.75;;;;;;;;;;7386437;19;20555;-79
2022/07/03 06:06:05;;;;;;;7.35;5.80;;;;;;;;;;7383629;19;20513;-78
2022/07/03 06:08:31;;;;;;;7.22;6.03;;;;;;;;;;7388258;19;20130;-79
2022/07/03 06:10:56;;;;;;;5.70;5.20;;;;;;;;;;7383788;19;20172;-79
2022/07/03 06:13:21;;;;;;;5.63;5.13;;;;;;;;;;7388652;19;20176;-78
2022/07/03 06:15:47;;;;;;;5.45;4.95;;;;;;;;;;7395256;19;20621;-78
2022/07/03 06:18:12;;;;;;;4.57;4.18;;;;;;;;;;7390864;19;20157;-81
2022/07/03 06:20:37;;;;;;;5.43;4.30;;;;;;;;;;7393082;19;20169;-79
2022/07/03 06:23:03;;;;;;;4.93;4.53;;;;;;;;;;7382456;19;20638;-80
2022/07/03 06:25:28;;;;;;;3.83;3.50;;;;;;;;;;7387661;19;20152;-78
2022/07/03 06:27:53;;;;;;;3.90;3.60;;;;;;;;;;7386600;19;20601;-79
2022/07/03 06:30:19;;;;;;;6.68;3.40;;;;;;;;;;7383847;19;20169;-79
2022/07/03 06:32:44;;;;;;;3.15;2.95;;;;;;;;;;7378134;19;20222;-81
2022/07/03 06:35:10;;;;;;;4.25;2.65;;;;;;;;;;7381751;19;20152;-79
2022/07/03 06:37:35;;;;;;;3.20;2.90;;;;;;;;;;7381816;19;20145;-80
2022/07/03 06:40:00;;;;;;;3.42;2.65;;;;;;;;;;7390380;19;20125;-79
2022/07/03 06:42:26;;;;;;;2.58;2.38;;;;;;;;;;7386638;19;20527;-79
2022/07/03 06:44:51;;;;;;;3.28;2.28;;;;;;;;;;7388085;19;20494;-81
2022/07/03 06:47:16;;;;;;;3.00;2.55;;;;;;;;;;7387064;19;20619;-78
2022/07/03 06:49:43;;;;;;;6.30;2.60;;;;;;;;;;7387224;19;20172;-79
2022/07/03 06:52:09;;;;;;;3.05;2.35;;;;;;;;;;7384703;19;20725;-79
2022/07/03 06:54:37;;;;;;;3.85;2.40;;;;;;;;;;7393825;19;20141;-82
2022/07/03 06:57:03;;;;;;;3.10;2.80;;;;;;;;;;7381388;19;20133;-78
2022/07/03 06:59:29;;;;;;;3.15;2.33;;;;;;;;;;7374246;19;20151;-78
2022/07/03 07:01:54;;;;;;;3.05;2.75;;;;;;;;;;7384151;19;20141;-78
2022/07/03 07:04:19;;;;;;;3.22;2.20;;;;;;;;;;7386359;19;20665;-77
2022/07/03 07:06:45;;;;;;;2.60;2.40;;;;;;;;;;7383573;19;20526;-81
2022/07/03 07:09:10;;;;;;;2.35;2.15;;;;;;;;;;7378383;19;20148;-80
2022/07/03 07:11:35;;;;;;;2.80;2.33;;;;;;;;;;7384098;19;20220;-78
2022/07/03 07:14:01;;;;;;;5.75;2.38;;;;;;;;;;7388895;19;20135;-80
2022/07/03 07:16:26;;;;;;;2.40;2.17;;;;;;;;;;7374287;19;20149;-79
2022/07/03 07:18:51;;;;;;;2.47;2.28;;;;;;;;;;7381705;19;20625;-79
2022/07/03 07:21:17;;;;;;;2.50;2.30;;;;;;;;;;7381021;19;20670;-81
2022/07/03 07:23:42;;;;;;;2.40;2.05;;;;;;;;;;7377714;19;20182;-79
2022/07/03 07:26:07;;;;;;;2.78;2.42;;;;;;;;;;7365710;19;20152;-79
2022/07/03 07:28:34;;;;;;;2.97;2.65;;;;;;;;;;7364870;19;20728;-78
2022/07/03 07:31:00;;;;;;;4.25;2.70;;;;;;;;;;7367908;19;20206;-78
2022/07/03 07:33:25;;;;;;;3.63;2.67;;;;;;;;;;7379097;19;20125;-80
2022/07/03 07:35:51;;;;;;;2.75;2.55;;;;;;;;;;7373861;19;20180;-79
2022/07/03 07:38:17;;;;;;;2.70;2.50;;;;;;;;;;7381930;19;20149;-78
2022/07/03 07:40:42;;;;;;;3.53;2.50;;;;;;;;;;7376049;19;20180;-79
2022/07/03 07:43:07;;;;;;;2.65;2.45;;;;;;;;;;7377100;19;20140;-79
2022/07/03 07:45:33;;;;;;;2.40;2.20;;;;;;;;;;7374965;19;20487;-78
2022/07/03 07:47:58;;;;;;;3.15;2.50;;;;;;;;;;7378823;19;20603;-79
2022/07/03 07:50:23;;;;;;;2.30;2.20;;;;;;;;;;7380801;19;20172;-78
2022/07/03 07:52:49;;;;;;;1.90;1.60;;;;;;;;;;7384643;19;20152;-78
2022/07/03 07:55:14;;;;;;;2.42;2.22;;;;;;;;;;7382440;19;20148;-81
2022/07/03 07:57:40;;;;;;;3.92;1.90;;;;;;;;;;7382606;19;20156;-78
2022/07/03 08:00:11;;;;;;;2.97;1.95;;;;;;;;;;7382079;19;20126;-78
2022/07/03 08:05:35;;;;;;;1.60;1.50;;;;;;;;;;7384117;19;20654;-78
2022/07/03 08:08:02;;;;;;;3.20;2.38;;;;;;;;;;7384048;19;20167;-80
2022/07/03 08:10:27;;;;;;;1.83;1.73;;;;;;;;;;7381968;19;20172;-79
2022/07/03 08:12:52;;;;;;;2.50;2.05;;;;;;;;;;7385742;19;20163;-78
2022/07/03 08:15:18;;;;;;;2.40;1.50;;;;;;;;;;7386263;19;20224;-78
2022/07/03 08:17:43;;;;;;;1.65;1.40;;;;;;;;;;7383688;19;20159;-79
2022/07/03 08:20:09;;;;;;;2.17;1.73;;;;;;;;;;7383680;19;20216;-78
2022/07/03 08:22:34;;;;;;;2.50;1.60;;;;;;;;;;7384340;19;20156;-78
2022/07/03 08:25:00;;;;;;;9.18;7.22;;;;;;;;;;7388014;19;20611;-79
2022/07/03 08:27:25;;;;;;;2.92;2.72;;;;;;;;;;7386288;19;20128;-78
2022/07/03 08:29:50;;;;;;;3.75;2.95;;;;;;;;;;7387061;19;20129;-79
2022/07/03 08:32:15;;;;;;;2.75;2.20;;;;;;;;;;7381618;19;20141;-80
2022/07/03 08:34:41;;;;;;;3.20;2.80;;;;;;;;;;7383132;19;20693;-78
2022/07/03 08:37:06;;;;;;;3.42;1.50;;;;;;;;;;7382695;19;20168;-78
2022/07/03 08:39:31;;;;;;;2.20;1.60;;;;;;;;;;7383655;19;20121;-79
2022/07/03 08:41:58;;;;;;;2.65;1.60;;;;;;;;;;7383020;19;20200;-79
2022/07/03 08:44:24;;;;;;;2.67;1.45;;;;;;;;;;7383814;19;20132;-79
2022/07/03 08:46:51;;;;;;;2.28;1.70;;;;;;;;;;7384793;19;20148;-79
2022/07/03 08:49:17;;;;;;;1.83;1.45;;;;;;;;;;7384775;19;20493;-79
2022/07/03 08:51:44;;;;;;;6.53;1.40;;;;;;;;;;7386273;19;20153;-79
2022/07/03 08:54:10;;;;;;;4.10;1.10;;;;;;;;;;7387326;19;20140;-79
2022/07/03 08:56:35;;;;;;;2.08;1.23;;;;;;;;;;7383536;19;20129;-79
2022/07/03 08:59:02;;;;;;;1.20;1.10;;;;;;;;;;7381110;19;20148;-79
2022/07/03 09:01:28;;;;;;;1.48;1.27;;;;;;;;;;7377018;19;20763;-79
2022/07/03 09:03:54;;;;;;;2.30;1.42;;;;;;;;;;7386748;19;20477;-80
2022/07/03 09:06:20;;;;;;;3.00;1.70;;;;;;;;;;7379489;19;20156;-80
2022/07/03 09:08:45;;;;;;;3.15;1.85;;;;;;;;;;7373971;19;20634;-80
2022/07/03 09:11:11;;;;;;;1.50;1.33;;;;;;;;;;7375395;19;20276;-79
2022/07/03 09:13:36;;;;;;;1.45;1.25;;;;;;;;;;7383861;19;20141;-79
2022/07/03 09:16:02;;;;;;;1.50;1.40;;;;;;;;;;7405940;19;20465;-81
2022/07/03 09:18:44;;;;;;;1.63;1.52;;;;;;;;;;7416492;19;20125;-81
2022/07/03 09:21:09;;;;;;;1.55;1.20;;;;;;;;;;7415230;19;20145;-81
2022/07/03 09:23:39;;;;;;;1.20;1.10;;;;;;;;;;7410647;19;20140;-80
2022/07/03 09:26:05;;;;;;;2.33;1.20;;;;;;;;;;7407801;19;20140;-80
2022/07/03 09:28:51;;;;;;;1.48;1.38;;;;;;;;;;7380127;19;20478;-80
2022/07/03 09:31:18;;;;;;;1.35;1.10;;;;;;;;;;7380254;19;20185;-79
2022/07/03 09:33:56;;;;;;;1.05;0.95;;;;;;;;;;7381654;19;20153;-80
2022/07/03 09:36:43;;;;;;;1.60;1.20;;;;;;;;;;7379767;19;20143;-80
2022/07/03 09:39:30;;;;;;;1.60;1.20;;;;;;;;;;7388225;19;20157;-79
2022/07/03 09:42:11;;;;;;;1.83;1.73;;;;;;;;;;7381304;19;20618;-79
2022/07/03 09:44:47;;;;;;;1.42;1.20;;;;;;;;;;7384393;19;20170;-79
2022/07/03 09:47:25;;;;;;;1.88;1.20;;;;;;;;;;7378947;19;20152;-80
2022/07/03 09:49:57;;;;;;;1.90;1.33;;;;;;;;;;7384259;19;20140;-80
2022/07/03 09:52:37;;;;;;;2.00;1.35;;;;;;;;;;7383260;19;20638;-81
2022/07/03 09:55:08;;;;;;;2.13;1.50;;;;;;;;;;7382761;19;20129;-80
2022/07/03 09:57:33;;;;;;;1.30;1.20;;;;;;;;;;7383710;19;20632;-80
2022/07/03 10:00:13;;;;;;;1.40;1.23;;;;;;;;;;7386466;19;20137;-80
2022/07/03 10:03:12;;;;;;;1.40;1.30;;;;;;;;;;7382748;19;20144;-80
2022/07/03 10:05:39;;;;;;;1.25;1.17;;;;;;;;;;7383348;19;20357;-80
2022/07/03 10:08:10;;;;;;;2.40;1.30;;;;;;;;;;7381130;19;20499;-80
2022/07/03 10:10:38;;;;;;;1.30;1.20;;;;;;;;;;7386530;19;20189;-80
2022/07/03 10:13:04;;;;;;;1.90;1.45;;;;;;;;;;7385737;19;20216;-80
2022/07/03 10:15:32;;;;;;;1.50;1.40;;;;;;;;;;7386584;19;20121;-80
2022/07/03 10:17:58;;;;;;;1.75;1.50;;;;;;;;;;7386851;19;20140;-81
2022/07/03 10:20:26;;;;;;;1.55;1.25;;;;;;;;;;7385403;19;20152;-80
2022/07/03 10:22:55;;;;;;;1.50;1.40;;;;;;;;;;7385234;19;20129;-81
2022/07/03 10:25:22;;;;;;;2.05;1.30;;;;;;;;;;7382682;19;20152;-80
2022/07/03 10:27:48;;;;;;;2.38;1.33;;;;;;;;;;7398018;19;20596;-80
2022/07/03 10:30:16;;;;;;;2.92;1.50;;;;;;;;;;7409999;19;20172;-81
2022/07/03 10:32:43;;;;;;;2.40;1.40;;;;;;;;;;7418384;19;20188;-82
2022/07/03 10:35:08;;;;;;;2.25;2.05;;;;;;;;;;7414821;19;20437;-80
2022/07/03 10:37:43;;;;;;;1.40;1.30;;;;;;;;;;7389642;19;20200;-81
2022/07/03 10:46:17;;;;;;;2.83;1.30;;;;;;;;;;7392528;19;20373;-80
2022/07/03 10:49:02;;;;;;;2.35;1.20;;;;;;;;;;7392304;19;20639;-80
2022/07/03 10:51:30;;;;;;;1.75;1.33;;;;;;;;;;7382593;19;20180;-80
2022/07/03 10:54:11;;;;;;;1.38;1.20;;;;;;;;;;7391799;19;20125;-81
2022/07/03 10:56:57;;;;;;;1.20;1.10;;;;;;;;;;7390725;19;20121;-81
2022/07/03 10:59:22;;;;;;;1.92;1.40;;;;;;;;;;7388682;19;20156;-81
2022/07/03 11:01:48;;;;;;;2.35;1.52;;;;;;;;;;7382351;19;20180;-80
2022/07/03 11:04:13;;;;;;;3.13;1.48;;;;;;;;;;7384360;19;20117;-80
2022/07/03 11:07:08;;;;;;;1.50;1.40;;;;;;;;;;7389619;19;20613;-80
2022/07/03 11:09:33;;;;;;;2.25;1.48;;;;;;;;;;7390306;19;20124;-80
2022/07/03 11:11:58;;;;;;;2.10;1.58;;;;;;;;;;7386560;19;20149;-81
2022/07/03 11:14:25;;;;;;;1.70;1.52;;;;;;;;;;7417331;19;20154;-81
2022/07/03 11:17:17;;;;;;;1.70;1.60;;;;;;;;;;7411908;19;20137;-81
2022/07/03 11:19:43;;;;;;;2.00;1.58;;;;;;;;;;7412007;19;20129;-81
2022/07/03 11:22:17;;;;;;;2.25;1.40;;;;;;;;;;7389657;19;20304;-81
2022/07/03 11:24:45;;;;;;;1.70;1.60;;;;;;;;;;7410302;19;20163;-81
2022/07/03 11:27:23;;;;;;;1.85;1.65;;;;;;;;;;7396347;19;20167;-82
2022/07/03 11:29:50;;;;;;;1.75;1.65;;;;;;;;;;7392818;19;20543;-82
2022/07/03 11:32:49;;;;;;;1.80;1.70;;;;;;;;;;7397332;19;20185;-82
2022/07/03 11:35:46;;;;;;;2.00;1.80;;;;;;;;;;7402078;19;20170;-80
2022/07/03 11:38:36;;;;;;;2.35;1.90;;;;;;;;;;7395865;19;20133;-81
2022/07/03 11:41:09;;;;;;;1.70;1.60;;;;;;;;;;7385709;19;20184;-80
2022/07/03 11:43:35;;;;;;;6.88;6.25;;;;;;;;;;7392678;19;20252;-80
2022/07/03 11:46:01;;;;;;;3.75;1.58;;;;;;;;;;7386078;19;20192;-81
2022/07/03 11:48:27;;;;;;;1.92;1.73;;;;;;;;;;7377276;19;20544;-81
2022/07/03 11:50:59;;;;;;;2.00;1.85;;;;;;;;;;7385605;19;20183;-81
2022/07/03 11:53:30;;;;;;;1.92;1.83;;;;;;;;;;7386590;19;20143;-80
2022/07/03 11:56:03;;;;;;;1.83;1.73;;;;;;;;;;7387692;19;20157;-81
2022/07/03 11:58:54;;;;;;;1.75;1.65;;;;;;;;;;7388531;19;20476;-81
2022/07/03 12:01:26;;;;;;;1.80;1.70;;;;;;;;;;7381003;19;20153;-81
2022/07/03 12:04:07;;;;;;;3.63;2.42;;;;;;;;;;7382368;19;20156;-81
2022/07/03 12:06:35;;;;;;;5.10;2.20;;;;;;;;;;7386434;19;20658;-81
2022/07/03 12:09:00;;;;;;;3.35;2.08;;;;;;;;;;7381080;19;20144;-80
2022/07/03 12:11:26;;;;;;;2.03;1.92;;;;;;;;;;7384715;19;20997;-81
2022/07/03 12:13:52;;;;;;;1.75;1.65;;;;;;;;;;7380849;19;20148;-81
2022/07/03 12:16:18;;;;;;;2.10;1.98;;;;;;;;;;7385048;19;21069;-80
2022/07/03 12:18:48;;;;;;;2.10;2.00;;;;;;;;;;7380362;19;20141;-81
2022/07/03 12:21:15;;;;;;;1.95;1.80;;;;;;;;;;7382519;19;20666;-81
2022/07/03 12:23:43;;;;;;;3.20;1.88;;;;;;;;;;7385853;19;20129;-81
2022/07/03 12:26:08;;;;;;;3.22;1.83;;;;;;;;;;7384930;19;20133;-80
2022/07/03 12:28:34;;;;;;;4.55;1.90;;;;;;;;;;7383825;19;20141;-81
2022/07/03 12:30:59;;;;;;;2.33;2.13;;;;;;;;;;7400895;19;20156;-81
2022/07/03 12:33:24;;;;;;;2.40;2.20;;;;;;;;;;7416974;19;20337;-82
2022/07/03 12:36:05;;;;;;;2.30;2.10;;;;;;;;;;7389219;19;20287;-81
2022/07/03 12:38:31;;;;;;;2.00;1.90;;;;;;;;;;7369962;19;20248;-81
2022/07/03 12:41:06;;;;;;;2.97;2.00;;;;;;;;;;7377021;19;20671;-81
2022/07/03 12:43:42;;;;;;;2.05;1.85;;;;;;;;;;7371687;19;20752;-81
2022/07/03 12:46:26;;;;;;;1.90;1.77;;;;;;;;;;7383581;19;20156;-80
2022/07/03 12:48:56;;;;;;;2.00;1.73;;;;;;;;;;7378866;19;20120;-82
2022/07/03 12:51:43;;;;;;;4.43;2.78;;;;;;;;;;7376495;19;20196;-80
2022/07/03 12:54:09;;;;;;;2.22;2.03;;;;;;;;;;7382740;19;20128;-81
2022/07/03 12:56:34;;;;;;;2.10;2.00;;;;;;;;;;7379966;19;20128;-81
2022/07/03 12:59:18;;;;;;;3.17;2.00;;;;;;;;;;7380156;19;20133;-82
2022/07/03 13:02:02;;;;;;;2.30;2.08;;;;;;;;;;7378388;19;20156;-81
2022/07/03 13:04:37;;;;;;;2.17;2.08;;;;;;;;;;7376603;19;20180;-81
2022/07/03 13:07:03;;;;;;;3.58;2.38;;;;;;;;;;7377637;19;20152;-81
2022/07/03 13:09:28;;;;;;;4.32;2.35;;;;;;;;;;7383781;19;20560;-81
2022/07/03 13:11:53;;;;;;;2.20;1.95;;;;;;;;;;7375772;19;20590;-81
2022/07/03 13:14:19;;;;;;;2.95;2.30;;;;;;;;;;7383403;19;20140;-81
2022/07/03 13:16:49;;;;;;;2.00;1.90;;;;;;;;;;7376832;19;20177;-82
2022/07/03 13:19:19;;;;;;;2.33;2.22;;;;;;;;;;7381859;19;20494;-81
2022/07/03 13:21:45;;;;;;;2.30;2.10;;;;;;;;;;7380406;19;20204;-81
2022/07/03 13:24:12;;;;;;;3.08;2.05;;;;;;;;;;7377233;19;20612;-81
2022/07/03 13:26:38;;;;;;;2.20;2.00;;;;;;;;;;7377631;19;20163;-81
2022/07/03 13:29:04;;;;;;;7.82;2.47;;;;;;;;;;7378284;19;20129;-81
2022/07/03 13:31:29;;;;;;;2.33;2.13;;;;;;;;;;7375340;19;20151;-81
2022/07/03 13:33:56;;;;;;;3.03;2.20;;;;;;;;;;7381265;19;20141;-81
2022/07/03 13:36:22;;;;;;;2.78;1.88;;;;;;;;;;7378561;19;20148;-81
2022/07/03 13:38:47;;;;;;;2.03;1.92;;;;;;;;;;7381250;19;20218;-81
2022/07/03 13:41:13;;;;;;;3.42;2.35;;;;;;;;;;7382169;19;20177;-82
2022/07/03 13:43:38;;;;;;;2.55;2.35;;;;;;;;;;7380416;19;20180;-82
2022/07/03 13:46:03;;;;;;;3.25;2.25;;;;;;;;;;7386234;19;20144;-80
2022/07/03 13:48:29;;;;;;;2.10;2.00;;;;;;;;;;7381827;19;20195;-81
2022/07/03 13:50:54;;;;;;;3.63;2.00;;;;;;;;;;7386510;19;20537;-81
2022/07/03 13:53:20;;;;;;;2.40;2.10;;;;;;;;;;7386409;19;20129;-80
2022/07/03 13:55:45;;;;;;;3.08;2.10;;;;;;;;;;7380825;19;20121;-80
2022/07/03 13:58:10;;;;;;;3.03;2.10;;;;;;;;;;7381583;19;20200;-81
2022/07/03 14:00:36;;;;;;;3.00;2.10;;;;;;;;;;7377801;19;20218;-80
2022/07/03 14:03:02;;;;;;;2.13;1.92;;;;;;;;;;7387321;19;20568;-80
2022/07/03 14:05:27;;;;;;;4.55;2.60;;;;;;;;;;7385987;19;20157;-80
2022/07/03 14:07:54;;;;;;;2.70;2.15;;;;;;;;;;7387062;19;20612;-83
2022/07/03 14:10:20;;;;;;;4.95;4.55;;;;;;;;;;7387174;19;20184;-81
2022/07/03 14:12:46;;;;;;;2.00;1.90;;;;;;;;;;7387872;19;20269;-81
2022/07/03 14:15:11;;;;;;;3.53;2.35;;;;;;;;;;7390721;19;20598;-80
2022/07/03 14:17:36;;;;;;;2.13;2.03;;;;;;;;;;7393335;19;20120;-81
2022/07/03 14:20:02;;;;;;;2.17;1.98;;;;;;;;;;7389691;19;20167;-80
2022/07/03 14:22:27;;;;;;;2.15;1.95;;;;;;;;;;7387724;19;20188;-81
2022/07/03 14:24:53;;;;;;;3.13;2.17;;;;;;;;;;7387937;19;20117;-81
2022/07/03 14:32:48;;;;;;;1.90;1.80;;;;;;;;;;7386090;19;20151;-81
2022/07/03 14:35:13;;;;;;;2.13;1.88;;;;;;;;;;7381867;19;20149;-81
2022/07/03 14:37:38;;;;;;;2.00;1.90;;;;;;;;;;7382663;19;20159;-81
2022/07/03 14:40:04;;;;;;;3.00;2.05;;;;;;;;;;7383738;19;20455;-81
2022/07/03 14:42:30;;;;;;;1.90;1.63;;;;;;;;;;7391197;19;20260;-82
2022/07/03 14:44:55;;;;;;;1.95;1.58;;;;;;;;;;7387383;19;20156;-81
2022/07/03 14:47:20;;;;;;;1.98;1.88;;;;;;;;;;7387401;19;20156;-81
2022/07/03 14:49:46;;;;;;;3.75;2.58;;;;;;;;;;7382024;19;20121;-81
2022/07/03 14:52:11;;;;;;;3.75;3.45;;;;;;;;;;7381321;19;20168;-81
2022/07/03 14:54:39;;;;;;;2.72;2.00;;;;;;;;;;7389204;19;20157;-80
2022/07/03 14:57:18;;;;;;;1.80;1.70;;;;;;;;;;7385506;19;20148;-80
2022/07/03 15:00:06;;;;;;;2.22;2.03;;;;;;;;;;7386191;19;20172;-80
2022/07/03 15:03:02;;;;;;;2.72;1.60;;;;;;;;;;7382537;19;20914;-80
2022/07/03 15:05:31;;;;;;;2.72;1.90;;;;;;;;;;7386955;19;20204;-80
2022/07/03 15:07:59;;;;;;;2.33;2.00;;;;;;;;;;7380933;19;20121;-81
2022/07/03 15:10:24;;;;;;;2.03;1.83;;;;;;;;;;7383791;19;20148;-80
2022/07/03 15:12:52;;;;;;;3.30;1.75;;;;;;;;;;7379531;19;20143;-80
2022/07/03 15:15:18;;;;;;;2.92;1.90;;;;;;;;;;7388257;19;20156;-80
2022/07/03 15:17:46;;;;;;;2.55;2.35;;;;;;;;;;7390236;19;20149;-81
2022/07/03 15:20:12;;;;;;;3.20;2.20;;;;;;;;;;7391085;19;20152;-80
2022/07/03 15:22:42;;;;;;;2.38;2.17;;;;;;;;;;7385915;19;20602;-81
2022/07/03 15:25:09;;;;;;;2.38;1.95;;;;;;;;;;7390704;19;20144;-80
2022/07/03 15:27:34;;;;;;;2.15;2.05;;;;;;;;;;7388116;19;20132;-81
2022/07/03 15:30:00;;;;;;;2.55;1.90;;;;;;;;;;7385448;19;20144;-80
2022/07/03 15:32:26;;;;;;;3.10;2.10;;;;;;;;;;7398318;19;20140;-81
2022/07/03 15:34:51;;;;;;;3.60;1.88;;;;;;;;;;7414320;19;20133;-81
2022/07/03 15:37:34;;;;;;;2.95;2.10;;;;;;;;;;7413488;19;20181;-81
2022/07/03 15:40:02;;;;;;;2.78;2.00;;;;;;;;;;7417064;19;20124;-80
2022/07/03 15:43:05;;;;;;;2.67;2.00;;;;;;;;;;7409638;19;20178;-80
2022/07/03 15:45:40;;;;;;;3.83;1.85;;;;;;;;;;7384457;19;20137;-81
2022/07/03 15:48:17;;;;;;;1.88;1.77;;;;;;;;;;7381265;19;20152;-81
2022/07/03 15:51:24;;;;;;;2.97;2.00;;;;;;;;;;7389007;19;20534;-80
2022/07/03 15:53:51;;;;;;;2.10;1.90;;;;;;;;;;7382307;19;20148;-80
2022/07/03 15:56:20;;;;;;;2.08;1.98;;;;;;;;;;7385271;19;20137;-81
2022/07/03 15:58:49;;;;;;;3.60;2.42;;;;;;;;;;7419605;19;20151;-81
2022/07/03 16:04:17;;;;;;;2.83;2.08;;;;;;;;;;7395734;19;20605;-80
2022/07/03 16:06:44;;;;;;;2.00;1.90;;;;;;;;;;7391510;19;20121;-81
2022/07/03 16:09:09;;;;;;;2.42;2.22;;;;;;;;;;7387898;19;20201;-80
2022/07/03 16:11:35;;;;;;;2.22;2.13;;;;;;;;;;7381172;19;20180;-82
2022/07/03 16:14:04;;;;;;;3.28;3.08;;;;;;;;;;7378975;19;20497;-82
2022/07/03 16:16:30;;;;;;;3.90;3.50;;;;;;;;;;7386970;19;20145;-83
2022/07/03 16:18:55;;;;;;;2.92;2.72;;;;;;;;;;7386003;19;20504;-82
2022/07/03 16:21:22;;;;;;;5.32;4.05;;;;;;;;;;7381016;19;20216;-82
2022/07/03 16:23:49;;;;;;;5.00;4.60;;;;;;;;;;7389655;19;20141;-82
2022/07/03 16:26:15;;;;;;;3.20;2.90;;;;;;;;;;7391411;19;20144;-83
2022/07/03 16:28:40;;;;;;;4.97;4.30;;;;;;;;;;7388655;19;20132;-83
2022/07/03 16:31:08;;;;;;;2.90;2.70;;;;;;;;;;7384691;19;20411;-83
2022/07/03 16:33:36;;;;;;;2.70;2.13;;;;;;;;;;7385534;19;20153;-81
2022/07/03 16:36:11;;;;;;;3.55;2.13;;;;;;;;;;7390069;19;20152;-81
2022/07/03 16:38:52;;;;;;;2.88;2.53;;;;;;;;;;7389696;19;20221;-81
2022/07/03 16:41:21;;;;;;;5.40;2.20;;;;;;;;;;7387207;19;20152;-81
2022/07/03 16:43:47;;;;;;;3.63;2.00;;;;;;;;;;7358388;19;20164;-83
2022/07/03 16:46:13;;;;;;;3.53;2.40;;;;;;;;;;7365701;19;20152;-81
2022/07/03 16:48:49;;;;;;;2.33;1.98;;;;;;;;;;7351270;19;20155;-80
2022/07/03 16:51:17;;;;;;;3.35;1.83;;;;;;;;;;7381834;19;20516;-81
2022/07/03 16:53:43;;;;;;;2.10;1.70;;;;;;;;;;7380817;19;20169;-82
2022/07/03 16:56:09;;;;;;;2.40;1.90;;;;;;;;;;7378088;19;20514;-81
2022/07/03 16:58:35;;;;;;;2.10;1.58;;;;;;;;;;7385708;19;20160;-81
2022/07/03 17:01:05;;;;;;;2.53;2.33;;;;;;;;;;7360761;19;20149;-81
2022/07/03 17:03:30;;;;;;;2.55;2.35;;;;;;;;;;7382991;19;20610;-81
2022/07/03 17:05:57;;;;;;;2.90;2.70;;;;;;;;;;7379104;19;20171;-81
2022/07/03 17:08:22;;;;;;;5.43;4.88;;;;;;;;;;7369529;19;20140;-81
2022/07/03 17:10:49;;;;;;;3.17;1.90;;;;;;;;;;7377184;19;20699;-81
2022/07/03 17:13:16;;;;;;;2.33;1.92;;;;;;;;;;7371166;19;20149;-81
2022/07/03 17:15:43;;;;;;;2.25;1.92;;;;;;;;;;7377054;19;20642;-81
2022/07/03 17:18:08;;;;;;;2.95;1.85;;;;;;;;;;7365264;19;20132;-80
2022/07/03 17:20:37;;;;;;;6.70;6.07;;;;;;;;;;7371569;19;20730;-81
2022/07/03 17:23:06;;;;;;;3.50;2.10;;;;;;;;;;7376461;19;20160;-81
2022/07/03 17:25:35;;;;;;;2.47;1.80;;;;;;;;;;7382232;19;20140;-81
2022/07/03 17:28:02;;;;;;;2.78;2.00;;;;;;;;;;7373256;19;20136;-81
2022/07/03 17:30:36;;;;;;;1.95;1.63;;;;;;;;;;7379334;19;20172;-82
2022/07/03 17:33:05;;;;;;;3.05;1.67;;;;;;;;;;7377898;19;20116;-81
2022/07/03 17:35:34;;;;;;;2.10;1.90;;;;;;;;;;7394594;19;20196;-82
2022/07/03 17:38:00;;;;;;;2.38;2.10;;;;;;;;;;7414114;19;20132;-82
2022/07/03 17:40:26;;;;;;;2.80;1.67;;;;;;;;;;7415871;19;20161;-81
2022/07/03 17:42:53;;;;;;;3.85;1.92;;;;;;;;;;7409941;19;20141;-82
2022/07/03 17:45:19;;;;;;;2.17;2.08;;;;;;;;;;7379030;19;20255;-82
2022/07/03 17:47:46;;;;;;;2.50;2.15;;;;;;;;;;7384558;19;20125;-82
